createdAt,value
2023-01-22T00:01:56.789Z,16
2023-01-22T00:08:07.045Z,14
2023-01-22T00:13:56.791Z,14
2023-01-22T00:19:56.733Z,14
2023-01-22T00:25:56.763Z,14
2023-01-22T00:31:56.907Z,15
2023-01-22T00:37:56.734Z,15
2023-01-22T00:43:56.742Z,15
2023-01-22T00:49:56.774Z,15
2023-01-22T00:55:57.026Z,16
2023-01-22T01:01:56.846Z,16
2023-01-22T01:07:56.747Z,16
2023-01-22T01:13:56.873Z,15
2023-01-22T01:20:07.030Z,15
2023-01-22T01:25:56.747Z,16
2023-01-22T01:31:56.870Z,16
2023-01-22T01:37:56.731Z,14
2023-01-22T01:43:56.735Z,16
2023-01-22T01:49:56.883Z,16
2023-01-22T01:55:56.750Z,15
2023-01-22T02:01:56.743Z,14
2023-01-22T02:07:56.832Z,14
2023-01-22T02:13:56.724Z,14
2023-01-22T02:19:56.731Z,13
2023-01-22T02:25:57.041Z,13
2023-01-22T02:31:56.786Z,13
2023-01-22T02:37:56.733Z,12
2023-01-22T02:43:56.834Z,12
2023-01-22T02:49:56.686Z,10
2023-01-22T02:55:56.705Z,12
2023-01-22T03:01:56.870Z,11
2023-01-22T03:07:56.719Z,10
2023-01-22T03:13:56.713Z,10
2023-01-22T03:19:56.869Z,9
2023-01-22T03:25:56.717Z,10
2023-01-22T03:31:56.760Z,10
2023-01-22T03:37:56.847Z,9
2023-01-22T03:43:56.700Z,10
2023-01-22T03:49:56.694Z,10
2023-01-22T03:55:56.814Z,9
2023-01-22T04:01:56.692Z,8
2023-01-22T04:07:56.686Z,8
2023-01-22T04:13:56.809Z,9
2023-01-22T04:19:56.690Z,8
2023-01-22T04:25:56.699Z,8
2023-01-22T04:31:56.792Z,7
2023-01-22T04:37:56.691Z,8
2023-01-22T04:43:56.672Z,8
2023-01-22T04:49:56.980Z,8
2023-01-22T04:55:56.680Z,7
2023-01-22T05:01:56.749Z,8
2023-01-22T05:07:56.806Z,8
2023-01-22T05:13:56.712Z,8
2023-01-22T05:19:56.752Z,8
2023-01-22T05:25:56.813Z,9
2023-01-22T05:31:56.686Z,9
2023-01-22T05:37:56.712Z,9
2023-01-22T05:43:56.792Z,10
2023-01-22T05:49:56.667Z,9
2023-01-22T05:55:56.680Z,10
2023-01-22T06:01:56.804Z,10
2023-01-22T06:07:56.671Z,10
2023-01-22T06:13:56.662Z,9
2023-01-22T06:19:56.811Z,10
2023-01-22T06:25:56.695Z,10
2023-01-22T06:31:56.758Z,10
2023-01-22T06:37:56.783Z,10
2023-01-22T06:43:56.662Z,10
2023-01-22T06:49:56.650Z,10
2023-01-22T06:55:56.789Z,10
2023-01-22T07:02:06.934Z,10
2023-01-22T07:07:56.684Z,11
2023-01-22T07:13:56.772Z,10
2023-01-22T07:19:56.655Z,11
2023-01-22T07:25:56.647Z,9
2023-01-22T07:31:56.869Z,9
2023-01-22T07:37:56.656Z,8
2023-01-22T07:43:56.623Z,10
2023-01-22T07:49:56.768Z,9
2023-01-22T07:55:56.633Z,9
2023-01-22T08:01:56.667Z,8
2023-01-22T08:07:56.764Z,10
2023-01-22T08:13:56.676Z,9
2023-01-22T08:19:56.709Z,9
2023-01-22T08:25:56.765Z,8
2023-01-22T08:31:56.738Z,8
2023-01-22T08:37:56.634Z,8
2023-01-22T08:43:56.746Z,7
2023-01-22T08:49:56.643Z,7
2023-01-22T08:55:56.620Z,7
2023-01-22T09:01:56.786Z,7
2023-01-22T09:07:56.622Z,6
2023-01-22T09:13:56.608Z,6
2023-01-22T09:19:56.748Z,6
2023-01-22T09:25:56.627Z,7
2023-01-22T09:31:56.683Z,7
2023-01-22T09:37:56.753Z,7
2023-01-22T09:43:56.613Z,7
2023-01-22T09:49:56.610Z,8
2023-01-22T09:55:56.746Z,7
2023-01-22T10:01:56.615Z,7
2023-01-22T10:07:56.801Z,7
2023-01-22T10:13:56.729Z,9
2023-01-22T10:19:56.594Z,8
2023-01-22T10:25:56.607Z,8
2023-01-22T10:31:56.908Z,8
2023-01-22T10:37:56.611Z,7
2023-01-22T10:43:56.594Z,7
2023-01-22T10:49:56.734Z,7
2023-01-22T10:55:56.626Z,9
2023-01-22T11:01:56.592Z,10
2023-01-22T11:07:56.722Z,12
2023-01-22T11:13:56.643Z,8
2023-01-22T11:19:56.620Z,8
2023-01-22T11:25:56.719Z,8
2023-01-22T11:31:56.622Z,7
2023-01-22T11:37:56.588Z,9
2023-01-22T11:43:56.701Z,6
2023-01-22T11:49:56.634Z,8
2023-01-22T11:55:56.621Z,7
2023-01-22T12:01:56.707Z,7
2023-01-22T12:07:56.613Z,7
2023-01-22T12:13:56.594Z,6
2023-01-22T12:19:56.717Z,5
2023-01-22T12:25:56.589Z,9
2023-01-22T12:31:56.716Z,12
2023-01-22T12:37:56.739Z,5
2023-01-22T12:43:56.588Z,10
2023-01-22T12:49:56.591Z,6
2023-01-22T12:55:56.730Z,5
2023-01-22T13:01:56.601Z,6
2023-01-22T13:07:56.641Z,7
2023-01-22T13:14:06.117Z,8
2023-01-22T13:19:56.604Z,5
2023-01-22T13:25:56.581Z,5
2023-01-22T13:31:56.860Z,5
2023-01-22T13:37:56.573Z,5
2023-01-22T13:43:56.584Z,7
2023-01-22T13:49:56.689Z,4
2023-01-22T13:55:56.577Z,6
2023-01-22T14:01:56.587Z,6
2023-01-22T14:07:56.705Z,8
2023-01-22T14:13:56.589Z,7
2023-01-22T14:19:56.590Z,5
2023-01-22T14:25:56.760Z,6
2023-01-22T14:31:56.668Z,6
2023-01-22T14:37:56.628Z,6
2023-01-22T14:43:56.759Z,7
2023-01-22T14:49:56.574Z,7
2023-01-22T14:55:56.594Z,9
2023-01-22T15:01:56.799Z,11
2023-01-22T15:07:56.554Z,10
2023-01-22T15:13:56.596Z,16
2023-01-22T15:19:56.688Z,14
2023-01-22T15:25:56.583Z,7
2023-01-22T15:31:56.612Z,15
2023-01-22T15:37:56.689Z,13
2023-01-22T15:43:56.564Z,13
2023-01-22T15:49:56.564Z,11
2023-01-22T15:55:56.676Z,11
2023-01-22T16:01:56.573Z,9
2023-01-22T16:07:56.617Z,11
2023-01-22T16:13:56.668Z,9
2023-01-22T16:19:56.567Z,11
2023-01-22T16:25:56.610Z,11
2023-01-22T16:31:56.790Z,12
2023-01-22T16:37:56.542Z,12
2023-01-22T16:43:56.555Z,11
2023-01-22T16:49:56.648Z,10
2023-01-22T16:55:56.582Z,12
2023-01-22T17:01:56.560Z,14
2023-01-22T17:07:56.657Z,12
2023-01-22T17:13:56.567Z,13
2023-01-22T17:19:56.553Z,12
2023-01-22T17:25:56.666Z,14
2023-01-22T17:31:56.624Z,12
2023-01-22T17:37:56.526Z,11
2023-01-22T17:43:56.679Z,9
2023-01-22T17:49:56.558Z,12
2023-01-22T17:55:56.542Z,12
2023-01-22T18:01:56.681Z,11
2023-01-22T18:07:56.535Z,10
2023-01-22T18:13:56.509Z,10
2023-01-22T18:19:56.745Z,11
2023-01-22T18:25:56.574Z,11
2023-01-22T18:31:56.615Z,13
2023-01-22T18:37:56.673Z,21
2023-01-22T18:43:56.551Z,13
2023-01-22T18:49:56.537Z,14
2023-01-22T18:55:58.345Z,15
2023-01-22T19:01:56.583Z,20
2023-01-22T19:07:56.593Z,18
2023-01-22T19:13:56.652Z,12
2023-01-22T19:19:56.538Z,13
2023-01-22T19:25:56.525Z,14
2023-01-22T19:31:56.721Z,12
2023-01-22T19:37:56.515Z,16
2023-01-22T19:43:56.508Z,12
2023-01-22T19:49:56.639Z,11
2023-01-22T19:55:56.611Z,13
2023-01-22T20:01:56.667Z,13
2023-01-22T20:07:56.660Z,13
2023-01-22T20:13:56.524Z,12
2023-01-22T20:19:56.529Z,16
2023-01-22T20:25:56.675Z,16
2023-01-22T20:31:56.583Z,17
2023-01-22T20:37:56.504Z,17
2023-01-22T20:43:56.645Z,16
2023-01-22T20:49:56.531Z,14
2023-01-22T20:55:56.545Z,12
2023-01-22T21:01:56.717Z,15
2023-01-22T21:07:56.597Z,17
2023-01-22T21:13:56.587Z,18
2023-01-22T21:19:56.649Z,14
2023-01-22T21:25:56.509Z,14
2023-01-22T21:31:56.558Z,13
2023-01-22T21:37:56.656Z,14
2023-01-22T21:43:56.524Z,15
2023-01-22T21:49:56.521Z,14
2023-01-22T21:55:56.628Z,13
2023-01-22T22:01:56.588Z,14
2023-01-22T22:07:56.517Z,15
2023-01-22T22:13:56.688Z,13
2023-01-22T22:19:56.500Z,12
2023-01-22T22:25:56.569Z,12
2023-01-22T22:31:56.680Z,16
2023-01-22T22:37:56.548Z,13
2023-01-22T22:43:56.493Z,12
2023-01-22T22:49:56.620Z,13
2023-01-22T22:55:56.490Z,12
2023-01-22T23:01:56.505Z,13
2023-01-22T23:07:56.615Z,13
2023-01-22T23:13:56.512Z,12
2023-01-22T23:19:56.499Z,12
2023-01-22T23:25:56.612Z,11
2023-01-22T23:31:56.641Z,10
2023-01-22T23:37:56.473Z,10
2023-01-22T23:43:56.628Z,11
2023-01-22T23:49:56.500Z,11
2023-01-22T23:55:56.491Z,12
